createdAt,value
2019-01-21T00:01:35.895Z,20.92
2019-01-21T00:04:04.715Z,16.97
2019-01-21T00:06:33.058Z,17.42
2019-01-21T00:09:01.336Z,18.07
2019-01-21T00:11:30.047Z,18.85
2019-01-21T00:13:58.315Z,18.42
2019-01-21T00:16:26.871Z,18.05
2019-01-21T00:18:55.280Z,16.45
2019-01-21T00:21:23.638Z,16.30
2019-01-21T00:23:51.903Z,17.87
2019-01-21T00:26:20.169Z,17.67
2019-01-21T00:28:48.550Z,18.45
2019-01-21T00:31:17.066Z,17.42
2019-01-21T00:33:45.328Z,18.25
2019-01-21T00:36:14.124Z,17.12
2019-01-21T00:38:42.473Z,17.17
2019-01-21T00:41:10.879Z,17.62
2019-01-21T00:43:39.563Z,17.30
2019-01-21T00:46:07.856Z,16.95
2019-01-21T00:48:36.590Z,17.37
2019-01-21T00:51:05.409Z,16.80
2019-01-21T00:53:33.753Z,17.20
2019-01-21T00:56:02.018Z,17.85
2019-01-21T00:58:30.413Z,18.35
2019-01-21T01:00:58.917Z,17.05
2019-01-21T01:03:27.162Z,19.00
2019-01-21T01:05:55.571Z,17.57
2019-01-21T01:08:23.913Z,16.80
2019-01-21T01:10:52.323Z,19.12
2019-01-21T01:13:20.676Z,17.90
2019-01-21T01:15:49.278Z,18.35
2019-01-21T01:18:18.069Z,17.25
2019-01-21T01:20:46.313Z,16.20
2019-01-21T01:23:14.598Z,17.60
2019-01-21T01:25:42.893Z,18.75
2019-01-21T01:28:11.576Z,20.37
2019-01-21T01:30:39.955Z,19.35
2019-01-21T01:33:08.300Z,18.07
2019-01-21T01:35:36.573Z,19.23
2019-01-21T01:38:04.934Z,18.25
2019-01-21T01:40:33.438Z,20.30
2019-01-21T01:43:01.806Z,18.45
2019-01-21T01:45:30.319Z,17.75
2019-01-21T01:47:59.381Z,19.40
2019-01-21T01:50:28.406Z,17.80
2019-01-21T01:52:56.876Z,17.23
2019-01-21T01:55:26.201Z,17.57
2019-01-21T01:57:55.756Z,18.48
2019-01-21T02:00:24.576Z,19.52
2019-01-21T02:02:52.825Z,18.32
2019-01-21T02:05:21.184Z,16.32
2019-01-21T02:07:49.905Z,16.40
2019-01-21T02:10:18.371Z,19.02
2019-01-21T02:12:47.279Z,18.48
2019-01-21T02:15:16.470Z,20.12
2019-01-21T02:17:51.868Z,18.23
2019-01-21T02:20:15.655Z,18.37
2019-01-21T02:22:46.881Z,18.20
2019-01-21T02:25:15.084Z,17.15
2019-01-21T02:27:53.797Z,18.12
2019-01-21T02:30:26.398Z,18.42
2019-01-21T02:32:59.385Z,18.05
2019-01-21T02:35:29.463Z,17.80
2019-01-21T02:37:59.722Z,18.75
2019-01-21T02:40:29.605Z,18.80
2019-01-21T02:43:05.593Z,18.50
2019-01-21T02:45:52.599Z,17.82
2019-01-21T02:48:25.454Z,17.35
2019-01-21T02:51:04.023Z,18.40
2019-01-21T02:53:34.220Z,18.75
2019-01-21T02:56:07.013Z,19.10
2019-01-21T02:58:36.886Z,19.90
2019-01-21T03:01:25.259Z,19.55
2019-01-21T03:03:55.479Z,18.25
2019-01-21T03:06:28.170Z,18.23
2019-01-21T03:09:06.904Z,17.57
2019-01-21T03:11:36.740Z,17.50
2019-01-21T03:14:06.567Z,18.02
2019-01-21T03:16:39.277Z,18.48
2019-01-21T03:19:24.421Z,17.50
2019-01-21T03:22:10.000Z,19.00
2019-01-21T03:24:42.671Z,18.80
2019-01-21T03:27:12.823Z,19.70
2019-01-21T03:29:45.707Z,16.85
2019-01-21T03:32:16.029Z,16.42
2019-01-21T03:34:46.044Z,19.07
2019-01-21T03:37:15.930Z,18.98
2019-01-21T03:39:54.854Z,20.70
2019-01-21T03:42:27.438Z,19.80
2019-01-21T03:44:57.676Z,21.02
2019-01-21T03:47:27.868Z,19.20
2019-01-21T03:49:57.676Z,21.05
2019-01-21T03:52:30.975Z,19.27
2019-01-21T03:55:00.270Z,21.45
2019-01-21T03:57:30.621Z,20.95
2019-01-21T04:00:09.615Z,21.75
2019-01-21T04:02:56.869Z,21.07
2019-01-21T04:05:26.656Z,21.05
2019-01-21T04:08:02.296Z,19.77
2019-01-21T04:10:40.971Z,20.27
2019-01-21T04:13:11.231Z,21.27
2019-01-21T04:15:47.323Z,21.20
2019-01-21T04:18:24.346Z,19.62
2019-01-21T04:21:00.654Z,21.25
2019-01-21T04:23:39.551Z,20.25
2019-01-21T04:26:09.386Z,21.55
2019-01-21T04:28:39.227Z,21.80
2019-01-21T04:31:26.444Z,23.38
2019-01-21T04:33:56.757Z,21.70
2019-01-21T04:36:32.684Z,22.70
2019-01-21T04:39:02.831Z,21.40
2019-01-21T04:41:37.544Z,20.75
2019-01-21T04:44:19.305Z,21.35
2019-01-21T04:46:49.122Z,22.07
2019-01-21T04:49:21.796Z,20.80
2019-01-21T04:52:06.794Z,23.12
2019-01-21T04:54:39.674Z,24.45
2019-01-21T04:57:18.701Z,25.40
2019-01-21T05:00:05.349Z,23.38
2019-01-21T05:02:44.403Z,22.55
2019-01-21T05:05:17.829Z,22.42
2019-01-21T05:08:04.228Z,26.33
2019-01-21T05:10:40.048Z,26.00
2019-01-21T05:13:15.746Z,25.43
2019-01-21T05:15:57.929Z,26.00
2019-01-21T05:18:41.298Z,26.97
2019-01-21T05:21:23.458Z,25.68
2019-01-21T05:24:02.259Z,26.90
2019-01-21T05:26:38.438Z,25.57
2019-01-21T05:29:14.700Z,24.43
2019-01-21T05:31:44.476Z,26.15
2019-01-21T05:34:17.191Z,24.23
2019-01-21T05:36:47.052Z,25.97
2019-01-21T05:39:19.950Z,25.55
2019-01-21T05:41:59.181Z,25.20
2019-01-21T05:44:29.199Z,23.30
2019-01-21T05:47:08.195Z,24.70
2019-01-21T05:49:44.170Z,24.95
2019-01-21T05:52:30.443Z,23.75
2019-01-21T05:55:09.289Z,26.25
2019-01-21T05:57:48.355Z,24.85
2019-01-21T06:00:33.160Z,23.57
2019-01-21T06:03:09.072Z,26.62
2019-01-21T06:05:55.295Z,25.05
2019-01-21T06:08:43.581Z,24.63
2019-01-21T06:11:19.575Z,23.35
2019-01-21T06:13:49.359Z,24.40
2019-01-21T06:16:19.277Z,25.23
2019-01-21T06:18:57.088Z,27.37
2019-01-21T06:21:29.569Z,25.68
2019-01-21T06:24:05.722Z,24.77
2019-01-21T06:26:35.605Z,27.35
2019-01-21T06:29:11.691Z,26.33
2019-01-21T06:31:41.488Z,25.10
2019-01-21T06:34:14.314Z,24.95
2019-01-21T06:36:46.882Z,25.45
2019-01-21T06:39:22.578Z,25.45
2019-01-21T06:42:04.497Z,24.50
2019-01-21T06:44:40.478Z,26.48
2019-01-21T06:47:26.723Z,23.60
2019-01-21T06:50:03.346Z,23.12
2019-01-21T06:52:49.578Z,22.90
2019-01-21T06:55:19.393Z,22.77
2019-01-21T06:58:06.229Z,24.35
2019-01-21T07:00:47.900Z,26.55
2019-01-21T07:03:17.701Z,23.52
2019-01-21T07:05:56.742Z,24.92
2019-01-21T07:08:29.543Z,23.05
2019-01-21T07:11:17.581Z,23.83
2019-01-21T07:13:50.670Z,22.95
2019-01-21T07:16:23.176Z,23.83
2019-01-21T07:18:52.974Z,23.12
2019-01-21T07:21:23.377Z,23.75
2019-01-21T07:23:59.267Z,22.55
2019-01-21T07:26:29.143Z,23.92
2019-01-21T07:28:58.953Z,25.02
2019-01-21T07:31:35.214Z,22.65
2019-01-21T07:34:05.435Z,23.07
2019-01-21T07:36:52.552Z,23.35
2019-01-21T07:39:25.573Z,22.58
2019-01-21T07:41:59.035Z,21.23
2019-01-21T07:44:38.128Z,22.32
2019-01-21T07:47:11.478Z,22.93
2019-01-21T07:49:41.972Z,23.22
2019-01-21T07:52:23.789Z,22.80
2019-01-21T07:54:59.502Z,21.80
2019-01-21T07:57:32.488Z,21.17
2019-01-21T08:00:08.634Z,21.45
2019-01-21T08:02:41.519Z,20.77
2019-01-21T08:05:26.441Z,22.55
2019-01-21T08:07:59.397Z,20.10
2019-01-21T08:10:29.178Z,21.73
2019-01-21T08:13:04.943Z,20.40
2019-01-21T08:15:41.220Z,19.70
2019-01-21T08:18:29.148Z,18.57
2019-01-21T08:21:04.973Z,17.82
2019-01-21T08:23:43.905Z,18.05
2019-01-21T08:26:13.704Z,17.77
2019-01-21T08:29:01.966Z,19.25
2019-01-21T08:31:31.863Z,18.50
2019-01-21T08:34:11.025Z,18.17
2019-01-21T08:36:40.837Z,19.93
2019-01-21T08:39:13.918Z,19.60
2019-01-21T08:41:49.755Z,18.47
2019-01-21T08:44:19.596Z,19.27
2019-01-21T08:47:06.405Z,20.00
2019-01-21T08:49:39.234Z,19.10
2019-01-21T08:52:15.025Z,18.87
2019-01-21T08:54:44.906Z,21.43
2019-01-21T08:57:15.970Z,20.50
2019-01-21T08:59:45.761Z,20.80
2019-01-21T09:02:16.012Z,20.83
2019-01-21T09:04:45.891Z,19.03
2019-01-21T09:07:18.705Z,20.67
2019-01-21T09:09:48.625Z,20.03
2019-01-21T09:12:21.877Z,19.80
2019-01-21T09:15:00.623Z,20.40
2019-01-21T09:17:45.493Z,20.07
2019-01-21T09:20:18.048Z,19.53
2019-01-21T09:22:50.952Z,20.83
2019-01-21T09:25:29.629Z,21.00
2019-01-21T09:28:12.078Z,19.37
2019-01-21T09:30:44.931Z,20.47
2019-01-21T09:33:14.852Z,21.20
2019-01-21T09:35:50.732Z,19.03
2019-01-21T09:38:20.552Z,20.13
2019-01-21T09:40:50.362Z,20.43
2019-01-21T09:43:23.158Z,20.17
2019-01-21T09:46:02.768Z,22.27
2019-01-21T09:48:30.632Z,21.03
2019-01-21T09:51:00.514Z,21.30
2019-01-21T09:53:29.536Z,21.93
2019-01-21T09:55:58.050Z,22.20
2019-01-21T09:58:27.571Z,21.87
2019-01-21T10:00:56.397Z,21.00
2019-01-21T10:03:25.202Z,21.03
2019-01-21T10:05:55.400Z,22.13
2019-01-21T10:08:25.244Z,21.60
2019-01-21T10:11:13.207Z,21.97
2019-01-21T10:13:43.024Z,22.30
2019-01-21T10:16:22.308Z,21.77
2019-01-21T10:18:58.367Z,22.30
2019-01-21T10:21:46.802Z,23.10
2019-01-21T10:24:33.189Z,22.80
2019-01-21T10:27:08.954Z,24.53
2019-01-21T10:29:44.639Z,21.80
2019-01-21T10:32:31.210Z,22.70
2019-01-21T10:35:06.773Z,22.33
2019-01-21T10:37:49.133Z,21.17
2019-01-21T10:40:28.600Z,21.03
2019-01-21T10:42:58.921Z,21.90
2019-01-21T10:45:28.703Z,21.27
2019-01-21T10:47:58.616Z,21.47
2019-01-21T10:50:28.428Z,20.50
2019-01-21T10:52:58.890Z,21.43
2019-01-21T10:55:29.102Z,24.20
2019-01-21T10:58:11.067Z,22.10
2019-01-21T11:00:46.740Z,22.57
2019-01-21T11:03:16.627Z,21.30
2019-01-21T11:05:49.539Z,22.60
2019-01-21T11:08:19.345Z,23.40
2019-01-21T11:10:58.302Z,23.33
2019-01-21T11:13:34.424Z,23.50
2019-01-21T11:16:10.081Z,24.20
2019-01-21T11:18:55.207Z,22.67
2019-01-21T11:21:27.734Z,25.00
2019-01-21T11:24:00.265Z,22.97
2019-01-21T11:26:36.124Z,23.37
2019-01-21T11:29:05.934Z,22.63
2019-01-21T11:31:44.863Z,22.63
2019-01-21T11:34:14.768Z,23.37
2019-01-21T11:36:50.850Z,22.67
2019-01-21T11:39:29.784Z,24.60
2019-01-21T11:41:59.560Z,22.00
2019-01-21T11:44:30.586Z,21.70
2019-01-21T11:47:15.685Z,23.00
2019-01-21T11:50:00.734Z,23.00
2019-01-21T11:52:30.989Z,22.40
2019-01-21T11:55:09.885Z,21.10
2019-01-21T11:57:58.122Z,22.93
2019-01-21T12:00:43.315Z,23.83
2019-01-21T12:03:16.414Z,23.37
2019-01-21T12:05:46.203Z,21.70
2019-01-21T12:08:24.864Z,22.90
2019-01-21T12:11:11.322Z,23.30
2019-01-21T12:13:41.224Z,24.50
2019-01-21T12:16:28.167Z,25.73
2019-01-21T12:18:58.490Z,23.27
2019-01-21T12:21:31.040Z,21.60
2019-01-21T12:24:00.857Z,20.23
2019-01-21T12:26:30.759Z,23.03
2019-01-21T12:29:17.169Z,21.07
2019-01-21T12:31:58.946Z,22.03
2019-01-21T12:34:37.997Z,21.30
2019-01-21T12:37:14.236Z,21.30
2019-01-21T12:39:44.250Z,20.77
2019-01-21T12:42:17.166Z,19.87
2019-01-21T12:44:53.019Z,21.07
2019-01-21T12:47:25.802Z,21.87
2019-01-21T12:49:55.638Z,19.83
2019-01-21T12:52:25.492Z,22.90
2019-01-21T12:54:56.587Z,22.90
2019-01-21T12:57:43.274Z,21.40
2019-01-21T13:00:19.122Z,20.93
2019-01-21T13:02:58.351Z,21.23
2019-01-21T13:05:40.445Z,23.50
2019-01-21T13:08:10.348Z,21.67
2019-01-21T13:10:40.216Z,23.10
2019-01-21T13:13:28.314Z,23.20
2019-01-21T13:16:13.377Z,21.90
2019-01-21T13:19:00.498Z,22.03
2019-01-21T13:21:34.794Z,22.17
2019-01-21T13:24:04.832Z,21.87
2019-01-21T13:26:34.743Z,23.50
2019-01-21T13:29:13.541Z,22.47
2019-01-21T13:31:43.403Z,22.07
2019-01-21T13:34:16.044Z,22.13
2019-01-21T13:37:04.265Z,21.73
2019-01-21T13:39:37.268Z,22.50
2019-01-21T13:42:07.200Z,22.70
2019-01-21T13:44:37.312Z,22.33
2019-01-21T13:47:19.175Z,23.67
2019-01-21T13:49:52.057Z,24.10
2019-01-21T13:52:28.421Z,22.87
2019-01-21T13:55:01.289Z,22.77
2019-01-21T13:57:37.157Z,21.43
2019-01-21T14:00:23.805Z,21.20
2019-01-21T14:03:11.830Z,24.20
2019-01-21T14:05:58.743Z,21.10
2019-01-21T14:08:45.007Z,22.23
2019-01-21T14:11:20.753Z,21.00
2019-01-21T14:13:51.109Z,21.07
2019-01-21T14:16:33.111Z,21.23
2019-01-21T14:19:04.302Z,23.57
2019-01-21T14:21:34.162Z,21.53
2019-01-21T14:24:10.014Z,22.27
2019-01-21T14:26:48.699Z,21.83
2019-01-21T14:29:34.298Z,21.97
2019-01-21T14:32:22.433Z,22.37
2019-01-21T14:34:54.984Z,21.53
2019-01-21T14:37:24.800Z,22.50
2019-01-21T14:40:00.590Z,22.87
2019-01-21T14:42:45.424Z,21.60
2019-01-21T14:45:24.445Z,22.70
2019-01-21T14:47:54.363Z,21.17
2019-01-21T14:50:24.275Z,22.23
2019-01-21T14:52:54.191Z,22.90
2019-01-21T14:55:33.014Z,22.47
2019-01-21T14:58:02.856Z,20.23
2019-01-21T15:00:49.090Z,20.90
2019-01-21T15:03:19.331Z,20.60
2019-01-21T15:05:51.839Z,22.03
2019-01-21T15:08:21.775Z,22.47
2019-01-21T15:11:09.748Z,20.90
2019-01-21T15:13:51.961Z,25.03
2019-01-21T15:16:27.774Z,20.90
2019-01-21T15:18:57.655Z,22.03
2019-01-21T15:21:30.153Z,20.73
2019-01-21T15:24:05.877Z,21.67
2019-01-21T15:26:35.722Z,20.57
2019-01-21T15:29:08.842Z,21.07
2019-01-21T15:31:41.695Z,22.17
2019-01-21T15:34:14.715Z,21.10
2019-01-21T15:36:51.074Z,20.57
2019-01-21T15:39:20.906Z,21.20
2019-01-21T15:41:59.910Z,20.70
2019-01-21T15:44:29.864Z,21.47
2019-01-21T15:47:05.841Z,21.37
2019-01-21T15:49:36.141Z,21.77
2019-01-21T15:52:05.939Z,21.62
2019-01-21T15:54:54.683Z,21.95
2019-01-21T15:57:30.557Z,21.52
2019-01-21T16:00:00.406Z,24.05
2019-01-21T16:02:30.488Z,21.80
2019-01-21T16:05:00.225Z,22.30
2019-01-21T16:07:30.054Z,21.87
2019-01-21T16:10:03.398Z,22.63
2019-01-21T16:12:33.445Z,22.30
2019-01-21T16:15:03.430Z,25.90
2019-01-21T16:17:33.319Z,25.02
2019-01-21T16:20:01.881Z,25.50
2019-01-21T16:22:34.808Z,24.07
2019-01-21T16:25:07.555Z,24.67
2019-01-21T16:27:37.776Z,23.73
2019-01-21T16:30:16.395Z,26.68
2019-01-21T16:32:46.338Z,54.18
2019-01-21T16:35:22.330Z,31.23
2019-01-21T16:37:52.143Z,43.68
2019-01-21T16:40:22.316Z,35.48
2019-01-21T16:42:51.110Z,29.65
2019-01-21T16:45:19.556Z,29.25
2019-01-21T16:47:48.051Z,24.05
2019-01-21T16:50:16.384Z,25.37
2019-01-21T16:52:44.736Z,24.55
2019-01-21T16:55:13.071Z,26.40
2019-01-21T16:57:41.852Z,28.27
2019-01-21T17:00:11.673Z,25.45
2019-01-21T17:02:40.061Z,27.35
2019-01-21T17:05:10.063Z,27.98
2019-01-21T17:07:38.382Z,28.12
2019-01-21T17:10:08.346Z,27.65
2019-01-21T17:12:37.058Z,29.05
2019-01-21T17:15:07.250Z,28.87
2019-01-21T17:17:35.577Z,28.80
2019-01-21T17:20:05.769Z,28.05
2019-01-21T17:22:34.115Z,28.52
2019-01-21T17:25:02.405Z,30.65
2019-01-21T17:27:30.725Z,29.45
2019-01-21T17:29:59.520Z,29.87
2019-01-21T17:32:27.907Z,30.40
2019-01-21T17:34:56.859Z,31.57
2019-01-21T17:37:27.160Z,32.10
2019-01-21T17:39:55.491Z,31.90
2019-01-21T17:42:23.961Z,31.15
2019-01-21T17:44:52.423Z,31.50
2019-01-21T17:47:20.752Z,29.72
2019-01-21T17:49:49.497Z,32.10
2019-01-21T17:52:17.982Z,33.53
2019-01-21T17:54:46.767Z,33.18
2019-01-21T17:57:15.216Z,32.80
2019-01-21T17:59:43.730Z,31.15
2019-01-21T18:02:12.606Z,34.33
2019-01-21T18:04:41.063Z,33.13
2019-01-21T18:07:09.404Z,32.58
2019-01-21T18:09:38.186Z,32.88
2019-01-21T18:12:06.637Z,33.53
2019-01-21T18:14:35.229Z,34.38
2019-01-21T18:17:03.870Z,32.78
2019-01-21T18:19:32.229Z,33.23
2019-01-21T18:22:00.632Z,33.70
2019-01-21T18:24:29.238Z,35.17
2019-01-21T18:26:57.912Z,32.58
2019-01-21T18:29:26.470Z,35.43
2019-01-21T18:31:54.807Z,35.43
2019-01-21T18:34:23.108Z,33.50
2019-01-21T18:36:51.531Z,36.85
2019-01-21T18:39:20.423Z,38.73
2019-01-21T18:41:48.781Z,34.40
2019-01-21T18:44:17.585Z,34.78
2019-01-21T18:46:45.931Z,35.40
2019-01-21T18:49:14.359Z,39.53
2019-01-21T18:51:46.591Z,40.43
2019-01-21T18:54:13.216Z,39.45
2019-01-21T18:56:41.589Z,40.90
2019-01-21T18:59:10.407Z,38.50
2019-01-21T19:01:39.302Z,38.38
2019-01-21T19:04:07.653Z,35.83
2019-01-21T19:06:36.020Z,33.50
2019-01-21T19:09:05.845Z,41.60
2019-01-21T19:11:34.203Z,37.42
2019-01-21T19:14:02.912Z,38.73
2019-01-21T19:16:31.403Z,37.48
2019-01-21T19:18:59.639Z,38.88
2019-01-21T19:21:28.136Z,36.55
2019-01-21T19:23:56.457Z,36.70
2019-01-21T19:26:24.817Z,35.00
2019-01-21T19:28:53.140Z,40.00
2019-01-21T19:31:21.486Z,35.92
2019-01-21T19:33:51.016Z,35.50
2019-01-21T19:36:19.955Z,34.75
2019-01-21T19:38:48.331Z,36.55
2019-01-21T19:41:16.675Z,33.85
2019-01-21T19:43:44.942Z,34.58
2019-01-21T19:46:13.312Z,33.10
2019-01-21T19:48:42.038Z,34.90
2019-01-21T19:51:10.936Z,34.80
2019-01-21T19:53:39.279Z,35.17
2019-01-21T19:56:07.688Z,32.53
2019-01-21T19:58:36.478Z,33.58
2019-01-21T20:01:04.953Z,39.35
2019-01-21T20:03:33.963Z,44.70
2019-01-21T20:06:02.698Z,39.08
2019-01-21T20:08:31.718Z,36.17
2019-01-21T20:11:00.824Z,33.60
2019-01-21T20:13:29.570Z,35.28
2019-01-21T20:15:58.697Z,34.53
2019-01-21T20:18:27.181Z,33.78
2019-01-21T20:20:55.476Z,31.23
2019-01-21T20:23:24.005Z,33.80
2019-01-21T20:25:52.718Z,33.23
2019-01-21T20:28:21.019Z,30.70
2019-01-21T20:30:49.373Z,32.60
2019-01-21T20:33:17.685Z,32.98
2019-01-21T20:35:46.006Z,31.95
2019-01-21T20:38:14.470Z,33.42
2019-01-21T20:40:43.185Z,31.77
2019-01-21T20:43:11.629Z,31.82
2019-01-21T20:45:40.739Z,30.57
2019-01-21T20:48:10.208Z,30.62
2019-01-21T20:50:38.623Z,32.10
2019-01-21T20:53:08.861Z,31.33
2019-01-21T20:55:37.645Z,30.25
2019-01-21T20:58:05.967Z,32.45
2019-01-21T21:00:35.734Z,32.28
2019-01-21T21:03:04.693Z,32.95
2019-01-21T21:05:33.102Z,32.55
2019-01-21T21:08:01.446Z,28.25
2019-01-21T21:10:29.776Z,31.52
2019-01-21T21:12:58.094Z,34.23
2019-01-21T21:15:28.241Z,32.70
2019-01-21T21:17:56.485Z,29.85
2019-01-21T21:20:26.204Z,32.50
2019-01-21T21:22:54.606Z,31.73
2019-01-21T21:25:23.106Z,32.95
2019-01-21T21:27:51.775Z,32.25
2019-01-21T21:30:27.020Z,34.48
2019-01-21T21:32:55.793Z,32.83
2019-01-21T21:35:24.887Z,32.63
2019-01-21T21:37:53.201Z,36.10
2019-01-21T21:40:22.656Z,34.10
2019-01-21T21:42:51.451Z,32.42
2019-01-21T21:45:20.720Z,33.30
2019-01-21T21:47:49.473Z,30.55
2019-01-21T21:50:19.413Z,36.30
2019-01-21T21:52:47.813Z,31.42
2019-01-21T21:55:16.582Z,32.98
2019-01-21T21:57:44.919Z,31.82
2019-01-21T22:00:15.089Z,32.15
2019-01-21T22:02:43.412Z,31.57
2019-01-21T22:05:11.762Z,31.80
2019-01-21T22:07:40.514Z,32.35
2019-01-21T22:10:10.640Z,30.85
2019-01-21T22:12:39.058Z,30.40
2019-01-21T22:15:09.672Z,30.25
2019-01-21T22:17:38.085Z,29.77
2019-01-21T22:20:16.221Z,31.87
2019-01-21T22:22:44.735Z,29.82
2019-01-21T22:25:13.309Z,31.68
2019-01-21T22:27:42.203Z,32.35
2019-01-21T22:30:12.099Z,31.50
2019-01-21T22:32:40.434Z,34.23
2019-01-21T22:35:08.783Z,30.48
2019-01-21T22:37:37.227Z,31.97
2019-01-21T22:40:07.665Z,28.15
2019-01-21T22:42:36.139Z,28.45
2019-01-21T22:45:05.700Z,28.55
2019-01-21T22:47:34.006Z,27.35
2019-01-21T22:50:02.719Z,28.55
2019-01-21T22:52:31.905Z,27.90
2019-01-21T22:55:00.267Z,28.00
2019-01-21T22:57:29.071Z,29.12
2019-01-21T22:59:57.754Z,27.75
2019-01-21T23:02:26.090Z,28.07
2019-01-21T23:04:55.132Z,28.98
2019-01-21T23:07:23.810Z,27.35
2019-01-21T23:09:52.266Z,27.00
2019-01-21T23:12:20.587Z,28.75
2019-01-21T23:14:50.794Z,27.37
2019-01-21T23:17:19.373Z,26.97
2019-01-21T23:19:47.720Z,29.80
2019-01-21T23:22:16.202Z,29.00
2019-01-21T23:24:45.017Z,30.45
2019-01-21T23:27:13.342Z,28.45
2019-01-21T23:29:41.686Z,28.90
2019-01-21T23:32:10.762Z,28.40
2019-01-21T23:34:39.066Z,27.93
2019-01-21T23:37:07.822Z,27.77
2019-01-21T23:39:36.507Z,29.25
2019-01-21T23:42:04.986Z,28.20
2019-01-21T23:44:33.443Z,28.87
2019-01-21T23:47:02.354Z,28.95
2019-01-21T23:49:30.735Z,26.73
2019-01-21T23:51:59.419Z,27.27
2019-01-21T23:54:27.898Z,29.12
2019-01-21T23:56:56.343Z,26.25
2019-01-21T23:59:24.752Z,27.58
